sensor_id;sensor_type;location;lat;lon;timestamp;temperature;humidity
20590;DHT22;10453;50.810;12.540;2022-08-27T00:01:41;19.10;99.90
20590;DHT22;10453;50.810;12.540;2022-08-27T00:05:58;19.10;99.90
20590;DHT22;10453;50.810;12.540;2022-08-27T00:10:19;19.00;99.90
20590;DHT22;10453;50.810;12.540;2022-08-27T00:14:37;19.00;99.90
20590;DHT22;10453;50.810;12.540;2022-08-27T00:18:55;18.90;99.90
20590;DHT22;10453;50.810;12.540;2022-08-27T00:23:13;19.00;99.90
20590;DHT22;10453;50.810;12.540;2022-08-27T00:27:30;19.20;99.90
20590;DHT22;10453;50.810;12.540;2022-08-27T00:31:48;19.20;99.90
20590;DHT22;10453;50.810;12.540;2022-08-27T00:36:11;19.20;99.90
20590;DHT22;10453;50.810;12.540;2022-08-27T00:40:29;19.20;99.90
20590;DHT22;10453;50.810;12.540;2022-08-27T00:44:46;19.10;99.90
20590;DHT22;10453;50.810;12.540;2022-08-27T00:49:25;19.10;99.90
20590;DHT22;10453;50.810;12.540;2022-08-27T00:53:43;19.10;99.90
20590;DHT22;10453;50.810;12.540;2022-08-27T01:02:21;19.10;99.90
20590;DHT22;10453;50.810;12.540;2022-08-27T01:06:42;19.10;99.90
20590;DHT22;10453;50.810;12.540;2022-08-27T01:10:59;19.10;99.90
20590;DHT22;10453;50.810;12.540;2022-08-27T01:15:21;19.10;99.90
20590;DHT22;10453;50.810;12.540;2022-08-27T01:19:49;19.20;99.90
20590;DHT22;10453;50.810;12.540;2022-08-27T01:24:33;19.20;99.90
20590;DHT22;10453;50.810;12.540;2022-08-27T01:28:51;19.20;99.90
20590;DHT22;10453;50.810;12.540;2022-08-27T01:33:17;19.20;99.90
20590;DHT22;10453;50.810;12.540;2022-08-27T01:37:35;19.20;99.90
20590;DHT22;10453;50.810;12.540;2022-08-27T01:41:53;19.20;99.90
20590;DHT22;10453;50.810;12.540;2022-08-27T01:46:11;19.20;99.90
20590;DHT22;10453;50.810;12.540;2022-08-27T01:50:33;19.20;99.90
20590;DHT22;10453;50.810;12.540;2022-08-27T01:54:52;19.20;99.90
20590;DHT22;10453;50.810;12.540;2022-08-27T01:59:09;19.10;99.90
20590;DHT22;10453;50.810;12.540;2022-08-27T02:03:28;19.00;99.90
20590;DHT22;10453;50.810;12.540;2022-08-27T02:07:45;19.10;99.90
20590;DHT22;10453;50.810;12.540;2022-08-27T02:12:03;19.10;99.90
20590;DHT22;10453;50.810;12.540;2022-08-27T02:16:20;19.00;99.90
20590;DHT22;10453;50.810;12.540;2022-08-27T02:20:38;19.10;99.90
20590;DHT22;10453;50.810;12.540;2022-08-27T02:24:55;19.20;99.90
20590;DHT22;10453;50.810;12.540;2022-08-27T02:29:13;19.10;99.90
20590;DHT22;10453;50.810;12.540;2022-08-27T02:33:30;19.10;99.90
20590;DHT22;10453;50.810;12.540;2022-08-27T02:37:49;19.20;99.90
20590;DHT22;10453;50.810;12.540;2022-08-27T02:42:06;19.10;99.90
20590;DHT22;10453;50.810;12.540;2022-08-27T02:46:24;19.10;99.90
20590;DHT22;10453;50.810;12.540;2022-08-27T02:50:41;19.00;99.90
20590;DHT22;10453;50.810;12.540;2022-08-27T02:54:59;19.00;99.90
20590;DHT22;10453;50.810;12.540;2022-08-27T02:59:19;19.10;99.90
20590;DHT22;10453;50.810;12.540;2022-08-27T03:03:36;19.20;99.90
20590;DHT22;10453;50.810;12.540;2022-08-27T03:07:56;19.20;99.90
20590;DHT22;10453;50.810;12.540;2022-08-27T03:12:15;19.20;99.90
20590;DHT22;10453;50.810;12.540;2022-08-27T03:16:34;19.20;99.90
20590;DHT22;10453;50.810;12.540;2022-08-27T03:20:53;19.20;99.90
20590;DHT22;10453;50.810;12.540;2022-08-27T03:25:11;19.20;99.90
20590;DHT22;10453;50.810;12.540;2022-08-27T03:29:28;19.10;99.90
20590;DHT22;10453;50.810;12.540;2022-08-27T03:33:45;19.10;99.90
20590;DHT22;10453;50.810;12.540;2022-08-27T03:38:03;19.10;99.90
20590;DHT22;10453;50.810;12.540;2022-08-27T03:42:21;19.10;99.90
20590;DHT22;10453;50.810;12.540;2022-08-27T03:46:38;19.10;99.90
20590;DHT22;10453;50.810;12.540;2022-08-27T03:50:56;19.10;99.90
20590;DHT22;10453;50.810;12.540;2022-08-27T03:55:14;19.00;99.90
20590;DHT22;10453;50.810;12.540;2022-08-27T03:59:31;19.10;99.90
20590;DHT22;10453;50.810;12.540;2022-08-27T04:03:49;19.10;99.90
20590;DHT22;10453;50.810;12.540;2022-08-27T04:08:06;19.10;99.90
20590;DHT22;10453;50.810;12.540;2022-08-27T04:12:24;19.00;99.90
20590;DHT22;10453;50.810;12.540;2022-08-27T04:16:42;19.10;99.90
20590;DHT22;10453;50.810;12.540;2022-08-27T04:21:07;19.00;99.90
20590;DHT22;10453;50.810;12.540;2022-08-27T04:25:24;19.10;99.90
20590;DHT22;10453;50.810;12.540;2022-08-27T04:29:42;19.10;99.90
20590;DHT22;10453;50.810;12.540;2022-08-27T04:33:59;19.00;99.90
20590;DHT22;10453;50.810;12.540;2022-08-27T04:38:16;19.10;99.90
20590;DHT22;10453;50.810;12.540;2022-08-27T04:42:34;19.10;99.90
20590;DHT22;10453;50.810;12.540;2022-08-27T04:46:55;19.20;99.90
20590;DHT22;10453;50.810;12.540;2022-08-27T04:51:13;19.30;99.90
20590;DHT22;10453;50.810;12.540;2022-08-27T04:55:33;19.10;99.90
20590;DHT22;10453;50.810;12.540;2022-08-27T04:59:50;19.10;99.90
20590;DHT22;10453;50.810;12.540;2022-08-27T05:04:11;19.20;99.90
20590;DHT22;10453;50.810;12.540;2022-08-27T05:08:29;19.20;99.90
20590;DHT22;10453;50.810;12.540;2022-08-27T05:12:46;19.20;99.90
20590;DHT22;10453;50.810;12.540;2022-08-27T05:17:06;19.20;99.90
20590;DHT22;10453;50.810;12.540;2022-08-27T05:21:32;19.10;99.90
20590;DHT22;10453;50.810;12.540;2022-08-27T05:25:51;19.10;99.90
20590;DHT22;10453;50.810;12.540;2022-08-27T05:30:10;19.10;99.90
20590;DHT22;10453;50.810;12.540;2022-08-27T05:34:29;19.10;99.90
20590;DHT22;10453;50.810;12.540;2022-08-27T05:38:48;19.10;99.90
20590;DHT22;10453;50.810;12.540;2022-08-27T05:43:06;19.00;99.90
20590;DHT22;10453;50.810;12.540;2022-08-27T05:47:23;18.90;99.90
20590;DHT22;10453;50.810;12.540;2022-08-27T05:51:41;18.90;99.90
20590;DHT22;10453;50.810;12.540;2022-08-27T05:55:58;19.00;99.90
20590;DHT22;10453;50.810;12.540;2022-08-27T06:00:16;19.00;99.90
20590;DHT22;10453;50.810;12.540;2022-08-27T06:04:52;19.10;99.90
20590;DHT22;10453;50.810;12.540;2022-08-27T06:09:12;19.20;99.90
20590;DHT22;10453;50.810;12.540;2022-08-27T06:13:32;19.20;99.90
20590;DHT22;10453;50.810;12.540;2022-08-27T06:17:49;19.30;99.90
20590;DHT22;10453;50.810;12.540;2022-08-27T06:22:07;19.10;99.90
20590;DHT22;10453;50.810;12.540;2022-08-27T06:26:27;19.20;99.90
20590;DHT22;10453;50.810;12.540;2022-08-27T06:30:44;19.30;99.90
20590;DHT22;10453;50.810;12.540;2022-08-27T06:35:01;19.40;99.90
20590;DHT22;10453;50.810;12.540;2022-08-27T06:39:18;19.50;99.90
20590;DHT22;10453;50.810;12.540;2022-08-27T06:43:38;19.50;99.90
20590;DHT22;10453;50.810;12.540;2022-08-27T06:47:56;19.70;99.90
20590;DHT22;10453;50.810;12.540;2022-08-27T06:52:14;19.70;99.90
20590;DHT22;10453;50.810;12.540;2022-08-27T06:56:32;19.60;99.90
20590;DHT22;10453;50.810;12.540;2022-08-27T07:00:49;19.40;99.90
20590;DHT22;10453;50.810;12.540;2022-08-27T07:05:08;19.40;99.90
20590;DHT22;10453;50.810;12.540;2022-08-27T07:09:26;19.40;99.90
20590;DHT22;10453;50.810;12.540;2022-08-27T07:13:45;19.40;99.90
20590;DHT22;10453;50.810;12.540;2022-08-27T07:18:03;19.30;99.90
20590;DHT22;10453;50.810;12.540;2022-08-27T07:22:21;19.30;99.90
20590;DHT22;10453;50.810;12.540;2022-08-27T07:26:41;19.10;99.90
20590;DHT22;10453;50.810;12.540;2022-08-27T07:30:59;19.00;99.90
20590;DHT22;10453;50.810;12.540;2022-08-27T07:35:16;19.00;99.90
20590;DHT22;10453;50.810;12.540;2022-08-27T07:39:33;19.00;99.90
20590;DHT22;10453;50.810;12.540;2022-08-27T07:43:51;19.10;99.90
20590;DHT22;10453;50.810;12.540;2022-08-27T07:48:27;19.10;99.90
20590;DHT22;10453;50.810;12.540;2022-08-27T07:52:45;19.00;99.90
20590;DHT22;10453;50.810;12.540;2022-08-27T07:57:02;19.10;99.90
20590;DHT22;10453;50.810;12.540;2022-08-27T08:01:20;19.10;99.90
20590;DHT22;10453;50.810;12.540;2022-08-27T08:05:43;19.20;99.90
20590;DHT22;10453;50.810;12.540;2022-08-27T08:10:01;19.10;99.90
20590;DHT22;10453;50.810;12.540;2022-08-27T08:14:18;19.10;99.90
20590;DHT22;10453;50.810;12.540;2022-08-27T08:18:37;19.30;99.90
20590;DHT22;10453;50.810;12.540;2022-08-27T08:22:54;19.30;99.90
20590;DHT22;10453;50.810;12.540;2022-08-27T08:27:11;19.40;99.90
20590;DHT22;10453;50.810;12.540;2022-08-27T08:31:28;19.40;99.90
20590;DHT22;10453;50.810;12.540;2022-08-27T08:35:46;19.50;99.90
20590;DHT22;10453;50.810;12.540;2022-08-27T08:40:05;19.50;99.90
20590;DHT22;10453;50.810;12.540;2022-08-27T08:44:36;19.60;99.90
20590;DHT22;10453;50.810;12.540;2022-08-27T08:49:01;19.60;99.90
20590;DHT22;10453;50.810;12.540;2022-08-27T09:02:52;19.50;99.90
20590;DHT22;10453;50.810;12.540;2022-08-27T09:07:25;19.50;99.90
20590;DHT22;10453;50.810;12.540;2022-08-27T09:16:07;19.70;99.90
20590;DHT22;10453;50.810;12.540;2022-08-27T09:20:24;19.80;99.90
20590;DHT22;10453;50.810;12.540;2022-08-27T09:24:57;19.80;99.90
20590;DHT22;10453;50.810;12.540;2022-08-27T09:29:18;19.80;99.90
20590;DHT22;10453;50.810;12.540;2022-08-27T09:33:36;20.00;99.90
20590;DHT22;10453;50.810;12.540;2022-08-27T09:38:25;20.20;99.90
20590;DHT22;10453;50.810;12.540;2022-08-27T09:42:46;20.80;99.90
20590;DHT22;10453;50.810;12.540;2022-08-27T09:47:12;21.30;99.90
20590;DHT22;10453;50.810;12.540;2022-08-27T09:51:30;21.40;99.90
20590;DHT22;10453;50.810;12.540;2022-08-27T09:55:59;21.50;99.90
20590;DHT22;10453;50.810;12.540;2022-08-27T10:00:36;21.40;99.90
20590;DHT22;10453;50.810;12.540;2022-08-27T10:04:57;21.30;99.90
20590;DHT22;10453;50.810;12.540;2022-08-27T10:09:25;21.30;99.90
20590;DHT22;10453;50.810;12.540;2022-08-27T10:27:52;21.20;99.90
20590;DHT22;10453;50.810;12.540;2022-08-27T10:37:01;20.40;99.90
20590;DHT22;10453;50.810;12.540;2022-08-27T10:41:30;20.10;99.90
20590;DHT22;10453;50.810;12.540;2022-08-27T10:46:03;20.10;99.90
20590;DHT22;10453;50.810;12.540;2022-08-27T10:50:38;20.30;99.90
20590;DHT22;10453;50.810;12.540;2022-08-27T10:55:26;20.60;99.90
20590;DHT22;10453;50.810;12.540;2022-08-27T11:00:11;20.90;99.90
20590;DHT22;10453;50.810;12.540;2022-08-27T11:04:44;20.80;99.90
20590;DHT22;10453;50.810;12.540;2022-08-27T11:13:48;20.60;99.90
20590;DHT22;10453;50.810;12.540;2022-08-27T11:18:26;20.40;99.90
20590;DHT22;10453;50.810;12.540;2022-08-27T11:27:11;20.10;99.90
20590;DHT22;10453;50.810;12.540;2022-08-27T11:31:38;20.10;99.90
20590;DHT22;10453;50.810;12.540;2022-08-27T11:45:21;20.00;99.90
20590;DHT22;10453;50.810;12.540;2022-08-27T11:49:50;20.10;99.90
20590;DHT22;10453;50.810;12.540;2022-08-27T11:54:28;19.90;99.90
20590;DHT22;10453;50.810;12.540;2022-08-27T11:58:46;19.60;99.90
20590;DHT22;10453;50.810;12.540;2022-08-27T12:03:23;19.40;99.90
20590;DHT22;10453;50.810;12.540;2022-08-27T12:07:49;19.50;99.90
20590;DHT22;10453;50.810;12.540;2022-08-27T12:12:20;19.40;99.90
20590;DHT22;10453;50.810;12.540;2022-08-27T12:17:06;19.50;99.90
20590;DHT22;10453;50.810;12.540;2022-08-27T12:26:16;19.50;99.90
20590;DHT22;10453;50.810;12.540;2022-08-27T12:30:38;19.50;99.90
20590;DHT22;10453;50.810;12.540;2022-08-27T12:35:16;19.50;99.90
20590;DHT22;10453;50.810;12.540;2022-08-27T12:39:37;19.70;99.90
20590;DHT22;10453;50.810;12.540;2022-08-27T12:44:07;19.80;99.90
20590;DHT22;10453;50.810;12.540;2022-08-27T12:48:29;20.30;99.90
20590;DHT22;10453;50.810;12.540;2022-08-27T12:53:24;20.40;99.90
20590;DHT22;10453;50.810;12.540;2022-08-27T12:58:10;20.30;99.90
20590;DHT22;10453;50.810;12.540;2022-08-27T13:02:42;20.40;99.90
20590;DHT22;10453;50.810;12.540;2022-08-27T13:07:02;20.30;99.90
20590;DHT22;10453;50.810;12.540;2022-08-27T13:11:26;20.30;99.90
20590;DHT22;10453;50.810;12.540;2022-08-27T13:15:54;20.20;99.90
20590;DHT22;10453;50.810;12.540;2022-08-27T13:20:15;20.40;99.90
20590;DHT22;10453;50.810;12.540;2022-08-27T13:24:42;20.80;99.90
20590;DHT22;10453;50.810;12.540;2022-08-27T13:29:05;20.80;99.90
20590;DHT22;10453;50.810;12.540;2022-08-27T13:33:27;20.70;99.90
20590;DHT22;10453;50.810;12.540;2022-08-27T13:37:48;20.60;99.90
20590;DHT22;10453;50.810;12.540;2022-08-27T13:42:07;20.40;99.90
20590;DHT22;10453;50.810;12.540;2022-08-27T13:46:26;20.40;99.90
20590;DHT22;10453;50.810;12.540;2022-08-27T13:50:51;20.30;99.90
20590;DHT22;10453;50.810;12.540;2022-08-27T13:55:15;20.30;99.90
20590;DHT22;10453;50.810;12.540;2022-08-27T13:59:36;20.30;99.90
20590;DHT22;10453;50.810;12.540;2022-08-27T14:04:02;20.40;99.90
20590;DHT22;10453;50.810;12.540;2022-08-27T14:08:28;20.60;99.90
20590;DHT22;10453;50.810;12.540;2022-08-27T14:12:55;20.80;99.90
20590;DHT22;10453;50.810;12.540;2022-08-27T14:17:36;20.70;99.90
20590;DHT22;10453;50.810;12.540;2022-08-27T14:21:54;20.60;99.90
20590;DHT22;10453;50.810;12.540;2022-08-27T14:26:13;20.20;99.90
20590;DHT22;10453;50.810;12.540;2022-08-27T14:30:33;20.00;99.90
20590;DHT22;10453;50.810;12.540;2022-08-27T14:34:50;19.90;99.90
20590;DHT22;10453;50.810;12.540;2022-08-27T14:39:08;19.90;99.90
20590;DHT22;10453;50.810;12.540;2022-08-27T14:43:26;19.80;99.90
20590;DHT22;10453;50.810;12.540;2022-08-27T14:47:44;19.80;99.90
20590;DHT22;10453;50.810;12.540;2022-08-27T14:52:03;19.80;99.90
20590;DHT22;10453;50.810;12.540;2022-08-27T14:56:22;19.90;99.90
20590;DHT22;10453;50.810;12.540;2022-08-27T15:00:41;19.90;99.90
20590;DHT22;10453;50.810;12.540;2022-08-27T15:05:01;19.90;99.90
20590;DHT22;10453;50.810;12.540;2022-08-27T15:09:28;20.00;99.90
20590;DHT22;10453;50.810;12.540;2022-08-27T15:13:46;20.00;99.90
20590;DHT22;10453;50.810;12.540;2022-08-27T15:18:03;20.00;99.90
20590;DHT22;10453;50.810;12.540;2022-08-27T15:22:22;20.10;99.90
20590;DHT22;10453;50.810;12.540;2022-08-27T15:26:40;20.20;99.90
20590;DHT22;10453;50.810;12.540;2022-08-27T15:30:57;20.30;99.90
20590;DHT22;10453;50.810;12.540;2022-08-27T15:35:19;20.40;99.90
20590;DHT22;10453;50.810;12.540;2022-08-27T15:39:37;20.50;99.90
20590;DHT22;10453;50.810;12.540;2022-08-27T15:43:54;20.50;99.90
20590;DHT22;10453;50.810;12.540;2022-08-27T15:48:11;20.60;99.90
20590;DHT22;10453;50.810;12.540;2022-08-27T15:52:29;20.60;99.90
20590;DHT22;10453;50.810;12.540;2022-08-27T15:56:57;20.70;99.90
20590;DHT22;10453;50.810;12.540;2022-08-27T16:01:25;21.00;99.90
20590;DHT22;10453;50.810;12.540;2022-08-27T16:05:44;21.00;99.90
20590;DHT22;10453;50.810;12.540;2022-08-27T16:10:03;21.20;99.90
20590;DHT22;10453;50.810;12.540;2022-08-27T16:14:20;21.20;99.90
20590;DHT22;10453;50.810;12.540;2022-08-27T16:18:39;21.20;99.90
20590;DHT22;10453;50.810;12.540;2022-08-27T16:22:58;21.10;99.90
20590;DHT22;10453;50.810;12.540;2022-08-27T16:27:16;20.80;99.90
20590;DHT22;10453;50.810;12.540;2022-08-27T16:31:33;20.60;99.90
20590;DHT22;10453;50.810;12.540;2022-08-27T16:35:51;20.60;99.90
20590;DHT22;10453;50.810;12.540;2022-08-27T16:40:10;20.40;99.90
20590;DHT22;10453;50.810;12.540;2022-08-27T16:44:27;20.40;99.90
20590;DHT22;10453;50.810;12.540;2022-08-27T16:48:45;20.40;99.90
20590;DHT22;10453;50.810;12.540;2022-08-27T16:53:21;20.40;99.90
20590;DHT22;10453;50.810;12.540;2022-08-27T16:57:38;20.30;99.90
20590;DHT22;10453;50.810;12.540;2022-08-27T17:01:56;20.20;99.90
20590;DHT22;10453;50.810;12.540;2022-08-27T17:06:14;20.30;99.90
20590;DHT22;10453;50.810;12.540;2022-08-27T17:10:37;20.40;99.90
20590;DHT22;10453;50.810;12.540;2022-08-27T17:14:55;20.30;99.90
20590;DHT22;10453;50.810;12.540;2022-08-27T17:19:16;20.30;99.90
20590;DHT22;10453;50.810;12.540;2022-08-27T17:23:50;20.30;99.90
20590;DHT22;10453;50.810;12.540;2022-08-27T17:28:09;20.20;99.90
20590;DHT22;10453;50.810;12.540;2022-08-27T17:32:27;20.10;99.90
20590;DHT22;10453;50.810;12.540;2022-08-27T17:36:45;20.00;99.90
20590;DHT22;10453;50.810;12.540;2022-08-27T17:41:11;19.90;99.90
20590;DHT22;10453;50.810;12.540;2022-08-27T17:45:28;19.90;99.90
20590;DHT22;10453;50.810;12.540;2022-08-27T17:49:46;19.90;99.90
20590;DHT22;10453;50.810;12.540;2022-08-27T17:54:03;19.70;99.90
20590;DHT22;10453;50.810;12.540;2022-08-27T17:58:22;19.40;99.90
20590;DHT22;10453;50.810;12.540;2022-08-27T18:02:47;19.20;99.90
20590;DHT22;10453;50.810;12.540;2022-08-27T18:07:05;19.10;99.90
20590;DHT22;10453;50.810;12.540;2022-08-27T18:11:23;19.00;99.90
20590;DHT22;10453;50.810;12.540;2022-08-27T18:15:41;19.00;99.90
20590;DHT22;10453;50.810;12.540;2022-08-27T18:19:59;18.90;99.90
20590;DHT22;10453;50.810;12.540;2022-08-27T18:24:17;18.90;99.90
20590;DHT22;10453;50.810;12.540;2022-08-27T18:28:34;18.90;99.90
20590;DHT22;10453;50.810;12.540;2022-08-27T18:32:52;18.80;99.90
20590;DHT22;10453;50.810;12.540;2022-08-27T18:37:09;18.80;99.90
20590;DHT22;10453;50.810;12.540;2022-08-27T18:41:28;18.80;99.90
20590;DHT22;10453;50.810;12.540;2022-08-27T18:45:46;18.90;99.90
20590;DHT22;10453;50.810;12.540;2022-08-27T18:50:06;18.80;99.90
20590;DHT22;10453;50.810;12.540;2022-08-27T18:54:24;18.90;99.90
20590;DHT22;10453;50.810;12.540;2022-08-27T18:58:44;18.90;99.90
20590;DHT22;10453;50.810;12.540;2022-08-27T19:03:02;18.90;99.90
20590;DHT22;10453;50.810;12.540;2022-08-27T19:07:20;18.90;99.90
20590;DHT22;10453;50.810;12.540;2022-08-27T19:11:37;18.90;99.90
20590;DHT22;10453;50.810;12.540;2022-08-27T19:15:59;19.00;99.90
20590;DHT22;10453;50.810;12.540;2022-08-27T19:20:18;18.90;99.90
20590;DHT22;10453;50.810;12.540;2022-08-27T19:24:36;19.00;99.90
20590;DHT22;10453;50.810;12.540;2022-08-27T19:28:56;18.90;99.90
20590;DHT22;10453;50.810;12.540;2022-08-27T19:33:13;18.90;99.90
20590;DHT22;10453;50.810;12.540;2022-08-27T19:37:31;18.80;99.90
20590;DHT22;10453;50.810;12.540;2022-08-27T19:41:51;18.80;99.90
20590;DHT22;10453;50.810;12.540;2022-08-27T19:46:08;18.80;99.90
20590;DHT22;10453;50.810;12.540;2022-08-27T19:50:26;18.90;99.90
20590;DHT22;10453;50.810;12.540;2022-08-27T19:54:44;18.80;99.90
20590;DHT22;10453;50.810;12.540;2022-08-27T19:59:21;18.80;99.90
20590;DHT22;10453;50.810;12.540;2022-08-27T20:03:39;18.80;99.90
20590;DHT22;10453;50.810;12.540;2022-08-27T20:07:56;18.80;99.90
20590;DHT22;10453;50.810;12.540;2022-08-27T20:12:13;18.80;99.90
20590;DHT22;10453;50.810;12.540;2022-08-27T20:16:31;18.80;99.90
20590;DHT22;10453;50.810;12.540;2022-08-27T20:20:48;18.80;99.90
20590;DHT22;10453;50.810;12.540;2022-08-27T20:25:06;18.80;99.90
20590;DHT22;10453;50.810;12.540;2022-08-27T20:29:27;18.70;99.90
20590;DHT22;10453;50.810;12.540;2022-08-27T20:33:49;18.60;99.90
20590;DHT22;10453;50.810;12.540;2022-08-27T20:38:07;18.60;99.90
20590;DHT22;10453;50.810;12.540;2022-08-27T20:42:24;18.60;99.90
20590;DHT22;10453;50.810;12.540;2022-08-27T20:46:41;18.70;99.90
20590;DHT22;10453;50.810;12.540;2022-08-27T20:51:07;18.50;99.90
20590;DHT22;10453;50.810;12.540;2022-08-27T20:55:25;18.50;99.90
20590;DHT22;10453;50.810;12.540;2022-08-27T20:59:42;18.50;99.90
20590;DHT22;10453;50.810;12.540;2022-08-27T21:04:18;18.50;99.90
20590;DHT22;10453;50.810;12.540;2022-08-27T21:08:36;18.50;99.90
20590;DHT22;10453;50.810;12.540;2022-08-27T21:12:54;18.40;99.90
20590;DHT22;10453;50.810;12.540;2022-08-27T21:17:11;18.40;99.90
20590;DHT22;10453;50.810;12.540;2022-08-27T21:21:29;18.40;99.90
20590;DHT22;10453;50.810;12.540;2022-08-27T21:25:46;18.40;99.90
20590;DHT22;10453;50.810;12.540;2022-08-27T21:30:05;18.40;99.90
20590;DHT22;10453;50.810;12.540;2022-08-27T21:34:22;18.50;99.90
20590;DHT22;10453;50.810;12.540;2022-08-27T21:38:40;18.40;99.90
20590;DHT22;10453;50.810;12.540;2022-08-27T21:42:57;18.40;99.90
20590;DHT22;10453;50.810;12.540;2022-08-27T21:47:14;18.40;99.90
20590;DHT22;10453;50.810;12.540;2022-08-27T21:51:32;18.40;99.90
20590;DHT22;10453;50.810;12.540;2022-08-27T21:55:52;18.30;99.90
20590;DHT22;10453;50.810;12.540;2022-08-27T22:04:43;18.30;99.90
20590;DHT22;10453;50.810;12.540;2022-08-27T22:09:01;18.30;99.90
20590;DHT22;10453;50.810;12.540;2022-08-27T22:13:20;18.30;99.90
20590;DHT22;10453;50.810;12.540;2022-08-27T22:17:37;18.30;99.90
20590;DHT22;10453;50.810;12.540;2022-08-27T22:21:55;18.30;99.90
20590;DHT22;10453;50.810;12.540;2022-08-27T22:26:12;18.30;99.90
20590;DHT22;10453;50.810;12.540;2022-08-27T22:30:29;18.30;99.90
20590;DHT22;10453;50.810;12.540;2022-08-27T22:34:47;18.40;99.90
20590;DHT22;10453;50.810;12.540;2022-08-27T22:39:04;18.40;99.90
20590;DHT22;10453;50.810;12.540;2022-08-27T22:43:21;18.40;99.90
20590;DHT22;10453;50.810;12.540;2022-08-27T22:47:38;18.30;99.90
20590;DHT22;10453;50.810;12.540;2022-08-27T22:51:56;18.30;99.90
20590;DHT22;10453;50.810;12.540;2022-08-27T22:56:13;18.30;99.90
20590;DHT22;10453;50.810;12.540;2022-08-27T23:00:33;18.30;99.90
20590;DHT22;10453;50.810;12.540;2022-08-27T23:04:51;18.20;99.90
20590;DHT22;10453;50.810;12.540;2022-08-27T23:09:11;18.20;99.90
20590;DHT22;10453;50.810;12.540;2022-08-27T23:13:32;18.20;99.90
20590;DHT22;10453;50.810;12.540;2022-08-27T23:17:49;18.20;99.90
20590;DHT22;10453;50.810;12.540;2022-08-27T23:22:07;18.10;99.90
20590;DHT22;10453;50.810;12.540;2022-08-27T23:26:24;18.10;99.90
20590;DHT22;10453;50.810;12.540;2022-08-27T23:31:00;18.10;99.90
20590;DHT22;10453;50.810;12.540;2022-08-27T23:35:18;18.20;99.90
20590;DHT22;10453;50.810;12.540;2022-08-27T23:39:35;18.20;99.90
20590;DHT22;10453;50.810;12.540;2022-08-27T23:43:52;18.10;99.90
20590;DHT22;10453;50.810;12.540;2022-08-27T23:48:10;18.10;99.90
20590;DHT22;10453;50.810;12.540;2022-08-27T23:52:28;18.00;99.90
20590;DHT22;10453;50.810;12.540;2022-08-27T23:56:45;18.00;99.90
